Time;durP1;ratioP1;P1;durP2;ratioP2;P2;SDS_P1;SDS_P2;PMS_P1;PMS_P2;Temp;Humidity;BMP_temperature;BMP_pressure;BME280_temperature;BME280_humidity;BME280_pressure;Samples;Min_cycle;Max_cycle;Signal;HPM_P1;HPM_P2
2022/01/25 00:08:50;;;;;;;1999.90;999.90;;;;;;;6.95;74.14;102922.47;5071456;28;20411;-68
2022/01/25 00:25:11;;;;;;;1999.90;999.90;;;;;;;7.24;73.69;102911.06;5070498;28;20112;-68
2022/01/25 00:27:42;;;;;;;1999.90;999.90;;;;;;;7.06;74.16;102905.06;5068715;28;20127;-68
2022/01/25 00:32:52;;;;;;;1999.90;999.90;;;;;;;7.10;74.28;102912.84;5061581;28;20036;-68
2022/01/25 00:35:20;;;;;;;1999.90;999.90;;;;;;;7.26;73.62;102911.06;5069531;28;20117;-68
2022/01/25 00:37:46;;;;;;;1999.90;999.90;;;;;;;7.25;73.39;102906.69;5069095;28;20470;-68
2022/01/25 00:40:13;;;;;;;1999.90;999.90;;;;;;;7.01;74.15;102896.34;5069104;28;20044;-68
2022/01/25 00:42:39;;;;;;;1999.90;999.90;;;;;;;6.93;74.81;102908.53;5067268;28;20701;-68
2022/01/25 00:45:08;;;;;;;1999.90;999.90;;;;;;;6.99;74.22;102898.97;5069412;28;20041;-68
2022/01/25 00:47:34;;;;;;;1999.90;999.90;;;;;;;7.12;74.23;102905.03;5068267;28;20106;-68
2022/01/25 00:50:01;;;;;;;1999.90;999.90;;;;;;;6.93;74.98;102908.53;5069011;28;20040;-68
2022/01/25 00:55:09;;;;;;;1999.90;999.90;;;;;;;6.76;75.86;102891.19;5067232;28;20492;-68
2022/01/25 00:57:36;;;;;;;1999.90;999.90;;;;;;;6.66;76.15;102894.69;5085422;28;20051;-68
2022/01/25 01:00:03;;;;;;;1999.90;999.90;;;;;;;6.84;75.69;102892.03;5060901;28;20107;-68
2022/01/25 01:02:29;;;;;;;1999.90;999.90;;;;;;;6.88;75.25;102897.25;5065067;28;20569;-68
2022/01/25 01:04:56;;;;;;;1999.90;999.90;;;;;;;6.92;74.73;102891.16;5071615;28;20432;-68
2022/01/25 01:07:23;;;;;;;1999.90;999.90;;;;;;;6.90;75.30;102890.31;5072774;27;20045;-68
2022/01/25 01:09:52;;;;;;;1999.90;999.90;;;;;;;6.88;75.12;102890.28;5075015;28;20040;-68
2022/01/25 01:12:44;;;;;;;1999.90;999.90;;;;;;;6.59;76.30;102882.53;5068118;28;20412;-68
2022/01/25 01:15:25;;;;;;;1999.90;999.90;;;;;;;6.27;77.04;102879.09;5084292;28;20048;-68
2022/01/25 01:29:25;;;;;;;1999.90;999.90;;;;;;;6.39;76.68;102867.78;5068633;28;20106;-68
2022/01/25 01:31:59;;;;;;;1999.90;999.90;;;;;;;6.32;77.02;102864.28;5069513;28;20072;-68
2022/01/25 01:34:48;;;;;;;1999.90;999.90;;;;;;;6.40;76.78;102869.50;5067440;28;20564;-68
2022/01/25 01:40:15;;;;;;;1999.90;999.90;;;;;;;5.99;77.39;102854.75;5086779;28;20059;-67
2022/01/25 01:43:03;;;;;;;1999.90;999.90;;;;;;;6.10;76.63;102854.75;5078273;28;20730;-67
2022/01/25 01:45:42;;;;;;;1999.90;999.90;;;;;;;6.19;76.72;102852.16;5070798;28;20041;-68
2022/01/25 01:48:10;;;;;;;1999.90;999.90;;;;;;;6.03;77.24;102853.00;5068706;28;20044;-68
2022/01/25 01:50:38;;;;;;;1999.90;999.90;;;;;;;6.29;76.21;102859.97;5065763;28;20049;-67
2022/01/25 01:53:07;;;;;;;1999.90;999.90;;;;;;;6.27;75.95;102853.91;5066003;28;20508;-67
2022/01/25 01:55:35;;;;;;;1999.90;999.90;;;;;;;6.48;75.04;102853.00;5064479;28;20056;-67
2022/01/25 01:58:04;;;;;;;1999.90;999.90;;;;;;;6.33;75.84;102853.00;5065851;28;20040;-68
2022/01/25 02:00:33;;;;;;;1999.90;999.90;;;;;;;6.39;75.29;102853.03;5066618;28;20049;-67
2022/01/25 02:03:00;;;;;;;1999.90;999.90;;;;;;;6.18;75.98;102859.09;5078441;28;20044;-68
2022/01/25 02:05:28;;;;;;;1999.90;999.90;;;;;;;6.30;75.94;102858.22;5084972;28;20500;-68
2022/01/25 02:07:55;;;;;;;1999.90;999.90;;;;;;;6.46;74.99;102852.16;5086363;28;20525;-68
2022/01/25 02:10:21;;;;;;;1999.90;999.90;;;;;;;6.40;75.44;102854.75;5087101;28;20072;-68
2022/01/25 02:12:50;;;;;;;1999.90;999.90;;;;;;;6.23;76.45;102851.28;5089490;28;20040;-68
2022/01/25 02:15:18;;;;;;;1999.90;999.90;;;;;;;6.40;75.89;102852.13;5089900;28;20058;-68
2022/01/25 02:22:23;;;;;;;1999.90;999.90;;;;;;;6.50;75.12;102856.50;5089652;28;20480;-68
2022/01/25 02:23:29;;;;;;;1999.90;999.90;;;;;;;7.07;73.55;102839.81;5089854;28;20090;-68
2022/01/25 02:25:57;;;;;;;1999.90;999.90;;;;;;;6.89;73.84;102833.78;5090423;28;20117;-68
2022/01/25 02:28:25;;;;;;;1999.90;999.90;;;;;;;6.79;74.84;102820.81;5089683;28;20143;-68
2022/01/25 02:30:52;;;;;;;1999.90;999.90;;;;;;;6.78;74.91;102836.44;5089104;28;20073;-67
2022/01/25 02:33:19;;;;;;;1999.90;999.90;;;;;;;6.70;75.43;102839.06;5088953;28;20188;-67
2022/01/25 02:35:47;;;;;;;1999.90;999.90;;;;;;;6.55;76.18;102846.03;5089421;28;20441;-67
2022/01/25 02:38:14;;;;;;;1999.90;999.90;;;;;;;6.53;76.84;102842.56;5089444;28;20040;-67
2022/01/25 02:40:41;;;;;;;1999.90;999.90;;;;;;;6.66;76.54;102837.34;5090018;28;20414;-67
2022/01/25 02:43:07;;;;;;;1999.90;999.90;;;;;;;6.69;76.30;102841.66;5088876;28;20048;-67
2022/01/25 02:45:36;;;;;;;1999.90;999.90;;;;;;;6.60;76.36;102837.34;5089811;28;20121;-67
2022/01/25 02:50:50;;;;;;;1999.90;999.90;;;;;;;6.34;77.63;102831.31;5081438;28;20051;-67
2022/01/25 02:53:17;;;;;;;1999.90;999.90;;;;;;;6.56;76.53;102833.00;5087417;28;20109;-68
2022/01/25 02:55:43;;;;;;;1999.90;999.90;;;;;;;6.53;76.47;102820.00;5067378;28;20094;-67
2022/01/25 02:58:09;;;;;;;1999.90;999.90;;;;;;;6.69;76.08;102834.72;5070623;28;20048;-67
2022/01/25 03:00:36;;;;;;;1999.90;999.90;;;;;;;6.76;75.53;102828.59;5071030;28;20077;-67
2022/01/25 03:03:03;;;;;;;1999.90;999.90;;;;;;;6.67;75.78;102826.03;5082762;28;20168;-68
2022/01/25 03:05:29;;;;;;;1999.90;999.90;;;;;;;6.58;76.00;102823.44;5068185;28;20048;-67
2022/01/25 03:07:57;;;;;;;1999.90;999.90;;;;;;;6.21;77.17;102826.97;5088010;28;20093;-68
2022/01/25 03:10:33;;;;;;;1999.90;999.90;;;;;;;6.18;77.16;102822.63;5073458;28;20492;-68
2022/01/25 03:12:59;;;;;;;1999.90;999.90;;;;;;;6.42;76.02;102820.88;5067938;28;20102;-68
2022/01/25 03:15:42;;;;;;;1999.90;999.90;;;;;;;6.46;76.16;102818.28;5082353;27;20043;-67
2022/01/25 03:18:22;;;;;;;1999.90;999.90;;;;;;;6.33;76.58;102819.16;5076362;28;20446;-67
2022/01/25 03:20:52;;;;;;;1999.90;999.90;;;;;;;6.47;75.94;102820.00;5063401;28;20060;-67
2022/01/25 03:23:20;;;;;;;1999.90;999.90;;;;;;;6.20;76.59;102822.66;5071830;28;20481;-68
2022/01/25 03:25:48;;;;;;;1999.90;999.90;;;;;;;6.47;76.17;102813.94;5091258;28;20269;-67
2022/01/25 03:28:14;;;;;;;1999.90;999.90;;;;;;;6.46;75.80;102815.66;5090616;28;20048;-67
2022/01/25 03:30:40;;;;;;;1999.90;999.90;;;;;;;6.28;76.59;102813.09;5076198;28;20041;-68
2022/01/25 03:33:07;;;;;;;1999.90;999.90;;;;;;;6.19;76.64;102819.16;5069932;28;20048;-67
2022/01/25 03:35:33;;;;;;;1999.90;999.90;;;;;;;6.18;76.69;102821.75;5070965;28;20491;-67
2022/01/25 03:37:59;;;;;;;1999.90;999.90;;;;;;;6.32;75.85;102810.47;5070253;28;20048;-67
2022/01/25 03:40:27;;;;;;;1999.90;999.90;;;;;;;6.28;76.34;102813.09;5070014;28;20075;-68
2022/01/25 03:42:55;;;;;;;1999.90;999.90;;;;;;;6.06;77.61;102817.41;5068577;28;20094;-67
2022/01/25 03:45:27;;;;;;;1999.90;999.90;;;;;;;6.12;76.74;102821.78;5070396;28;20063;-67
2022/01/25 03:49:47;;;;;;;1999.90;999.90;;;;;;;6.30;76.31;102824.38;5067738;28;20049;-67
2022/01/25 03:50:47;;;;;;;1999.90;999.90;;;;;;;6.43;75.78;102817.41;5063885;28;20036;-68
2022/01/25 03:53:16;;;;;;;1999.90;999.90;;;;;;;6.57;75.23;102811.31;5064125;28;20476;-67
2022/01/25 03:55:44;;;;;;;1999.90;999.90;;;;;;;6.41;75.68;102812.19;5056718;28;20048;-67
2022/01/25 03:58:10;;;;;;;1999.90;999.90;;;;;;;6.15;76.03;102813.94;5068579;28;20097;-67
2022/01/25 04:00:39;;;;;;;1999.90;999.90;;;;;;;5.95;77.20;102816.53;5068019;28;20075;-67
2022/01/25 04:03:12;;;;;;;1999.90;999.90;;;;;;;6.10;76.41;102816.53;5064156;28;20090;-67
2022/01/25 04:05:49;;;;;;;1999.90;999.90;;;;;;;5.97;76.50;102814.81;5069603;28;20106;-67
2022/01/25 04:08:16;;;;;;;1999.90;999.90;;;;;;;5.89;76.29;102813.94;5069360;28;20047;-67
2022/01/25 04:10:44;;;;;;;1999.90;999.90;;;;;;;5.99;75.64;102809.59;5069116;28;20098;-67
2022/01/25 04:13:10;;;;;;;1999.90;999.90;;;;;;;6.12;75.25;102814.84;5069312;28;20087;-67
2022/01/25 04:15:40;;;;;;;1999.90;999.90;;;;;;;6.09;74.86;102811.34;5069304;28;20040;-67
2022/01/25 04:18:22;;;;;;;1999.90;999.90;;;;;;;6.32;73.56;102807.84;5068291;28;20488;-68
2022/01/25 04:20:58;;;;;;;1999.90;999.90;;;;;;;6.06;73.69;102812.22;5069311;28;20076;-67
2022/01/25 04:26:10;;;;;;;1999.90;999.90;;;;;;;5.99;72.53;102807.00;5080361;28;20435;-67
2022/01/25 04:28:36;;;;;;;1999.90;999.90;;;;;;;6.07;71.63;102813.09;5077746;28;20044;-67
2022/01/25 04:31:03;;;;;;;1999.90;999.90;;;;;;;6.33;71.34;102804.38;5082020;28;20068;-67
2022/01/25 04:33:39;;;;;;;1999.90;999.90;;;;;;;6.03;70.93;102798.31;5088675;28;20044;-67
2022/01/25 04:36:24;;;;;;;1999.90;999.90;;;;;;;6.26;70.96;102797.44;5088779;28;20136;-68
2022/01/25 04:49:53;;;;;;;1999.90;999.90;;;;;;;6.35;70.30;102810.47;5079029;28;20056;-68
2022/01/25 04:52:23;;;;;;;1999.90;999.90;;;;;;;5.94;71.13;102796.59;5058345;28;20053;-68
2022/01/25 04:54:56;;;;;;;1999.90;999.90;;;;;;;6.29;70.76;102806.97;5049364;28;20451;-67
2022/01/25 04:57:36;;;;;;;1999.90;999.90;;;;;;;6.38;70.14;102808.72;5067304;28;22795;-67
2022/01/25 05:00:11;;;;;;;1999.90;999.90;;;;;;;6.29;70.66;102809.59;5081214;28;20032;-67
2022/01/25 05:02:47;;;;;;;1999.90;999.90;;;;;;;6.06;70.99;102807.00;5084845;28;20278;-67
2022/01/25 05:05:18;;;;;;;1999.90;999.90;;;;;;;5.83;71.81;102809.59;5088634;28;20052;-67
2022/01/25 05:07:51;;;;;;;1999.90;999.90;;;;;;;5.69;71.39;102808.69;5089047;28;20514;-67
2022/01/25 05:10:17;;;;;;;1999.90;999.90;;;;;;;6.00;71.24;102816.56;5088961;27;20105;-68
2022/01/25 05:12:50;;;;;;;1999.90;999.90;;;;;;;5.99;71.23;102815.69;5081747;28;20048;-68
2022/01/25 05:15:24;;;;;;;1999.90;999.90;;;;;;;6.17;70.74;102817.44;5088999;28;20059;-68
2022/01/25 05:18:06;;;;;;;1999.90;999.90;;;;;;;6.21;70.30;102817.41;5088650;28;20130;-68
2022/01/25 05:23:16;;;;;;;1999.90;999.90;;;;;;;6.39;70.59;102800.91;5048490;28;20111;-68
2022/01/25 05:25:42;;;;;;;1999.90;999.90;;;;;;;6.22;70.71;102803.53;5087622;28;20066;-68
2022/01/25 05:28:10;;;;;;;1999.90;999.90;;;;;;;6.05;70.69;102797.47;5065594;28;20094;-68
2022/01/25 05:30:36;;;;;;;1999.90;999.90;;;;;;;6.33;70.27;102809.59;5066231;28;20044;-68
2022/01/25 05:33:03;;;;;;;1999.90;999.90;;;;;;;6.16;71.15;102802.66;5066894;28;20036;-68
2022/01/25 05:35:29;;;;;;;1999.90;999.90;;;;;;;6.12;71.59;102800.94;5079274;28;20048;-68
2022/01/25 05:37:55;;;;;;;1999.90;999.90;;;;;;;5.80;72.59;102793.94;5085906;28;20055;-68
2022/01/25 05:40:39;;;;;;;1999.90;999.90;;;;;;;5.88;72.46;102802.66;5086298;28;20044;-68
2022/01/25 05:46:03;;;;;;;1999.90;999.90;;;;;;;5.20;74.43;102794.72;5047248;28;20385;-67
2022/01/25 05:48:31;;;;;;;1999.90;999.90;;;;;;;5.16;75.25;102798.16;5072423;28;20558;-67
2022/01/25 05:50:59;;;;;;;1999.90;999.90;;;;;;;5.60;74.01;102798.28;5078587;28;20093;-67
2022/01/25 05:53:25;;;;;;;1999.90;999.90;;;;;;;5.77;73.77;102791.34;5088610;28;20044;-67
2022/01/25 05:55:53;;;;;;;1999.90;999.90;;;;;;;5.75;73.56;102789.63;5086201;28;20052;-68
2022/01/25 05:58:20;;;;;;;1999.90;999.90;;;;;;;6.02;72.76;102799.22;5080106;28;20048;-68
2022/01/25 06:00:47;;;;;;;1999.90;999.90;;;;;;;6.16;72.53;102803.53;5072825;28;20462;-68
2022/01/25 06:03:14;;;;;;;1999.90;999.90;;;;;;;6.19;72.44;102802.66;5073732;28;20094;-68
2022/01/25 06:05:41;;;;;;;1999.90;999.90;;;;;;;6.18;72.58;102806.13;5069376;28;20041;-68
2022/01/25 06:08:08;;;;;;;1999.90;999.90;;;;;;;6.27;72.93;102803.53;5069665;28;20049;-68
2022/01/25 06:10:35;;;;;;;1999.90;999.90;;;;;;;6.31;72.67;102802.66;5089501;28;20040;-68
2022/01/25 06:13:01;;;;;;;1999.90;999.90;;;;;;;6.27;73.04;102820.03;5089033;28;20487;-67
2022/01/25 06:15:28;;;;;;;1999.90;999.90;;;;;;;5.76;73.82;102822.59;5071670;28;20044;-68
2022/01/25 06:17:54;;;;;;;1999.90;999.90;;;;;;;5.68;74.00;102816.50;5075905;28;20117;-68
2022/01/25 06:20:22;;;;;;;1999.90;999.90;;;;;;;5.80;73.71;102812.16;5076259;28;20067;-68
2022/01/25 06:22:49;;;;;;;1999.90;999.90;;;;;;;5.75;73.63;102805.22;5069787;28;20134;-68
2022/01/25 06:25:16;;;;;;;1999.90;999.90;;;;;;;5.81;73.55;102810.44;5070390;28;20091;-68
2022/01/25 06:27:43;;;;;;;1999.90;999.90;;;;;;;6.13;72.56;102811.38;5076978;28;20044;-68
2022/01/25 06:30:13;;;;;;;1999.90;999.90;;;;;;;6.18;72.02;102811.34;5068898;28;20048;-68
2022/01/25 06:32:39;;;;;;;1999.90;999.90;;;;;;;5.77;72.81;102806.97;5068929;28;20040;-68
2022/01/25 06:35:07;;;;;;;1999.90;999.90;;;;;;;5.72;72.75;102811.31;5069294;28;20040;-68
2022/01/25 06:37:36;;;;;;;1999.90;999.90;;;;;;;5.85;72.73;102817.38;5070316;28;20044;-68
2022/01/25 06:40:03;;;;;;;1999.90;999.90;;;;;;;5.63;72.53;102815.63;5061912;28;20509;-68
2022/01/25 06:42:31;;;;;;;1999.90;999.90;;;;;;;5.74;72.81;102819.09;5070491;28;20504;-68
2022/01/25 06:45:01;;;;;;;1999.90;999.90;;;;;;;5.95;72.48;102820.91;5069422;28;20384;-68
2022/01/25 06:47:27;;;;;;;1999.90;999.90;;;;;;;5.94;72.16;102830.47;5068724;28;20044;-68
2022/01/25 06:49:53;;;;;;;1999.90;999.90;;;;;;;5.98;71.41;102836.53;5068950;28;20048;-68
2022/01/25 06:52:20;;;;;;;1999.90;999.90;;;;;;;5.61;72.54;102820.84;5068607;28;20125;-68
2022/01/25 06:54:48;;;;;;;1999.90;999.90;;;;;;;5.76;71.92;102827.81;5067768;28;20044;-68
2022/01/25 06:57:14;;;;;;;1999.90;999.90;;;;;;;5.92;71.72;102833.91;5066377;28;20137;-68
2022/01/25 06:59:41;;;;;;;1999.90;999.90;;;;;;;5.94;71.50;102834.78;5067700;28;20044;-68
2022/01/25 07:02:08;;;;;;;1999.90;999.90;;;;;;;6.03;71.21;102838.25;5067246;28;20040;-68
2022/01/25 07:04:35;;;;;;;1999.90;999.90;;;;;;;5.90;70.90;102835.66;5067711;28;20124;-68
2022/01/25 07:07:01;;;;;;;1999.90;999.90;;;;;;;5.89;70.52;102832.19;5056360;28;20045;-68
2022/01/25 07:09:28;;;;;;;1999.90;999.90;;;;;;;6.04;69.96;102839.13;5048776;28;20049;-67
2022/01/25 07:11:56;;;;;;;1999.90;999.90;;;;;;;5.93;70.48;102846.06;5048856;28;20057;-68
2022/01/25 07:14:22;;;;;;;1999.90;999.90;;;;;;;5.82;70.42;102848.63;5054958;28;20106;-68
2022/01/25 07:16:49;;;;;;;1999.90;999.90;;;;;;;5.81;70.51;102849.47;5068351;28;20090;-68
2022/01/25 07:19:15;;;;;;;1999.90;999.90;;;;;;;5.93;69.69;102853.88;5066545;28;20040;-68
2022/01/25 07:21:41;;;;;;;1999.90;999.90;;;;;;;6.02;69.69;102849.56;5068670;28;20114;-68
2022/01/25 07:24:08;;;;;;;1999.90;999.90;;;;;;;6.12;69.42;102856.50;5068381;28;20040;-68
2022/01/25 07:26:34;;;;;;;1999.90;999.90;;;;;;;6.05;69.75;102851.28;5068014;28;20044;-68
2022/01/25 07:29:02;;;;;;;1999.90;999.90;;;;;;;6.25;68.99;102854.75;5067502;28;20045;-68
2022/01/25 07:31:28;;;;;;;1999.90;999.90;;;;;;;5.88;69.85;102849.53;5065571;28;20041;-68
2022/01/25 07:33:54;;;;;;;1999.90;999.90;;;;;;;5.91;69.85;102847.81;5062016;28;20052;-68
2022/01/25 07:36:21;;;;;;;1999.90;999.90;;;;;;;5.92;69.70;102845.19;5056929;28;20052;-68
2022/01/25 07:38:47;;;;;;;1999.90;999.90;;;;;;;5.95;69.71;102844.34;5057587;28;20045;-68
2022/01/25 07:41:13;;;;;;;1999.90;999.90;;;;;;;6.04;69.64;102850.41;5053574;28;20078;-68
2022/01/25 07:43:40;;;;;;;1999.90;999.90;;;;;;;6.07;69.52;102847.81;5059092;28;20053;-68
2022/01/25 07:46:07;;;;;;;1999.90;999.90;;;;;;;5.85;69.21;102843.41;5048192;28;20098;-68
2022/01/25 07:48:34;;;;;;;1999.90;999.90;;;;;;;5.72;70.48;102846.88;5051670;28;20044;-68
2022/01/25 07:51:00;;;;;;;1999.90;999.90;;;;;;;5.80;69.84;102852.97;5076474;28;20484;-68
2022/01/25 07:53:27;;;;;;;1999.90;999.90;;;;;;;6.02;69.29;102852.16;5065802;28;20045;-68
2022/01/25 07:55:53;;;;;;;1999.90;999.90;;;;;;;5.90;69.72;102854.75;5057730;28;20044;-68
2022/01/25 07:58:20;;;;;;;1999.90;999.90;;;;;;;5.98;69.47;102857.38;5065352;28;20090;-68
2022/01/25 08:00:47;;;;;;;1999.90;999.90;;;;;;;6.05;69.92;102862.59;5063807;28;20541;-68
2022/01/25 08:03:17;;;;;;;1999.90;999.90;;;;;;;6.13;69.01;102860.84;5062064;28;20114;-67
2022/01/25 08:05:45;;;;;;;1999.90;999.90;;;;;;;6.17;69.02;102864.31;5062945;28;20049;-67
2022/01/25 08:08:11;;;;;;;1999.90;999.90;;;;;;;6.01;69.66;102866.03;5065788;28;20136;-67
2022/01/25 08:10:38;;;;;;;1999.90;999.90;;;;;;;6.06;69.86;102859.09;5066156;28;20048;-68
2022/01/25 08:13:04;;;;;;;1999.90;999.90;;;;;;;5.80;70.32;102866.84;5064952;28;20121;-68
2022/01/25 08:15:31;;;;;;;1999.90;999.90;;;;;;;5.73;71.16;102861.63;5067019;28;20048;-68
2022/01/25 08:17:57;;;;;;;1999.90;999.90;;;;;;;6.02;70.23;102872.13;5052053;28;20106;-68
2022/01/25 08:20:25;;;;;;;1999.90;999.90;;;;;;;6.10;70.05;102865.16;5064969;28;20052;-68
2022/01/25 08:22:52;;;;;;;1999.90;999.90;;;;;;;6.22;70.27;102870.38;5065517;28;20064;-67
2022/01/25 08:25:19;;;;;;;1999.90;999.90;;;;;;;6.10;70.02;102871.25;5063021;28;20369;-67
2022/01/25 08:27:45;;;;;;;1999.90;999.90;;;;;;;5.90;71.63;102866.91;5061574;28;20044;-67
2022/01/25 08:30:13;;;;;;;1999.90;999.90;;;;;;;5.72;71.95;102859.91;5067391;28;20051;-68
2022/01/25 08:32:39;;;;;;;1999.90;999.90;;;;;;;5.81;71.69;102858.16;5063514;28;20083;-68
2022/01/25 08:35:06;;;;;;;1999.90;999.90;;;;;;;6.24;70.82;102868.66;5056669;28;20044;-68
2022/01/25 08:37:34;;;;;;;1999.90;999.90;;;;;;;6.41;70.22;102874.72;5051022;28;20473;-68
2022/01/25 08:40:01;;;;;;;1999.90;999.90;;;;;;;6.40;70.78;102874.72;5067421;28;20044;-68
2022/01/25 08:42:28;;;;;;;1999.90;999.90;;;;;;;6.47;70.88;102871.25;5064006;28;20072;-68
2022/01/25 08:44:55;;;;;;;1999.90;999.90;;;;;;;5.62;72.84;102874.59;5084607;28;25345;-68
2022/01/25 08:47:21;;;;;;;1999.90;999.90;;;;;;;5.81;72.98;102868.56;5086955;28;20093;-68
2022/01/25 08:49:47;;;;;;;1999.90;999.90;;;;;;;5.67;73.12;102864.22;5084893;27;20442;-67
2022/01/25 08:52:14;;;;;;;1999.90;999.90;;;;;;;5.85;72.20;102870.31;5085244;27;20048;-68
2022/01/25 08:54:41;;;;;;;1999.90;999.90;;;;;;;6.17;71.57;102875.59;5085366;28;20101;-67
2022/01/25 08:57:09;;;;;;;1999.90;999.90;;;;;;;5.84;72.07;102865.97;5082873;28;20093;-68
2022/01/25 08:59:35;;;;;;;1999.90;999.90;;;;;;;5.80;73.02;102859.03;5084145;28;20063;-68
2022/01/25 09:02:02;;;;;;;1999.90;999.90;;;;;;;5.69;72.73;102862.50;5086281;28;20070;-68
2022/01/25 09:04:29;;;;;;;1999.90;999.90;;;;;;;6.03;72.30;102863.44;5083543;28;20052;-68
2022/01/25 09:06:55;;;;;;;1999.90;999.90;;;;;;;5.90;72.85;102853.88;5086454;28;20055;-67
2022/01/25 09:09:22;;;;;;;1999.90;999.90;;;;;;;6.19;72.13;102859.97;5083840;28;20044;-68
2022/01/25 09:11:50;;;;;;;1999.90;999.90;;;;;;;5.99;72.02;102851.25;5084957;28;20044;-67
2022/01/25 09:14:17;;;;;;;1999.90;999.90;;;;;;;5.92;72.40;102854.72;5080207;28;20047;-67
2022/01/25 09:16:44;;;;;;;1999.90;999.90;;;;;;;6.00;72.68;102853.88;5082667;28;20044;-67
2022/01/25 09:19:10;;;;;;;1999.90;999.90;;;;;;;5.45;74.00;102859.81;5085961;27;20105;-67
2022/01/25 09:21:37;;;;;;;1999.90;999.90;;;;;;;5.59;73.72;102859.00;5085867;27;20048;-68
2022/01/25 09:24:03;;;;;;;1999.90;999.90;;;;;;;5.84;73.55;102862.50;5087083;28;20089;-68
2022/01/25 09:26:30;;;;;;;1999.90;999.90;;;;;;;5.83;73.07;102853.84;5086403;28;20040;-67
2022/01/25 09:28:58;;;;;;;1999.90;999.90;;;;;;;5.66;73.97;102859.88;5085867;28;20097;-67
2022/01/25 09:31:25;;;;;;;1999.90;999.90;;;;;;;5.74;74.27;102859.03;5073097;28;20086;-68
2022/01/25 09:33:52;;;;;;;1999.90;999.90;;;;;;;5.76;73.57;102854.72;5062390;28;20045;-67
2022/01/25 09:36:18;;;;;;;1999.90;999.90;;;;;;;5.77;73.84;102851.22;5065916;28;20098;-67
2022/01/25 09:38:45;;;;;;;1999.90;999.90;;;;;;;6.15;72.89;102859.09;5066408;28;20121;-67
2022/01/25 09:41:12;;;;;;;1999.90;999.90;;;;;;;5.98;72.89;102858.25;5063420;28;20074;-67
2022/01/25 09:43:39;;;;;;;1999.90;999.90;;;;;;;5.87;73.14;102860.81;5053454;28;20049;-67
2022/01/25 09:46:06;;;;;;;1999.90;999.90;;;;;;;5.48;74.98;102859.81;5063856;28;20458;-67
2022/01/25 09:48:33;;;;;;;1999.90;999.90;;;;;;;5.98;73.41;102855.63;5064575;28;20044;-68
2022/01/25 09:50:59;;;;;;;1999.90;999.90;;;;;;;5.73;73.96;102857.28;5074547;27;20048;-67
2022/01/25 09:53:26;;;;;;;1999.90;999.90;;;;;;;5.54;74.95;102858.13;5066008;28;20048;-67
2022/01/25 09:55:52;;;;;;;1999.90;999.90;;;;;;;5.69;74.20;102855.53;5066379;28;20043;-67
2022/01/25 09:58:19;;;;;;;1999.90;999.90;;;;;;;5.44;74.94;102845.94;5064286;28;20048;-67
2022/01/25 10:00:48;;;;;;;1999.90;999.90;;;;;;;5.50;75.05;102856.38;5070769;28;20044;-67
2022/01/25 10:03:24;;;;;;;1999.90;999.90;;;;;;;5.66;74.15;102855.53;5070742;28;20052;-68
2022/01/25 10:05:55;;;;;;;1999.90;999.90;;;;;;;5.46;75.19;102848.56;5059847;28;20052;-66
2022/01/25 10:08:24;;;;;;;1999.90;999.90;;;;;;;5.31;75.92;102845.03;5064763;28;20044;-66
2022/01/25 10:10:54;;;;;;;1999.90;999.90;;;;;;;5.36;76.00;102845.03;5065425;28;20048;-67
2022/01/25 10:13:23;;;;;;;1999.90;999.90;;;;;;;5.55;75.23;102849.44;5065888;28;20093;-67
2022/01/25 10:15:51;;;;;;;1999.90;999.90;;;;;;;5.40;75.29;102846.78;5065188;28;20098;-67
2022/01/25 10:18:19;;;;;;;1999.90;999.90;;;;;;;5.65;74.86;102847.75;5065036;28;20056;-67
2022/01/25 10:20:47;;;;;;;1999.90;999.90;;;;;;;5.74;74.33;102829.50;5060085;28;20037;-67
2022/01/25 10:23:18;;;;;;;1999.90;999.90;;;;;;;5.94;74.22;102840.00;5044846;28;20045;-66
2022/01/25 10:25:47;;;;;;;1999.90;999.90;;;;;;;5.76;74.37;102839.09;5061690;28;20131;-67
2022/01/25 10:28:15;;;;;;;1999.90;999.90;;;;;;;5.57;75.74;102826.03;5065448;28;20110;-67
2022/01/25 10:30:49;;;;;;;1999.90;999.90;;;;;;;5.60;74.79;102834.72;5064928;28;20048;-67
2022/01/25 10:33:31;;;;;;;1999.90;999.90;;;;;;;5.98;73.85;102823.50;5065223;28;20045;-67
2022/01/25 10:35:59;;;;;;;1999.90;999.90;;;;;;;6.82;71.98;102818.19;5061295;28;20048;-68
2022/01/25 10:38:30;;;;;;;1999.90;999.90;;;;;;;7.38;69.93;102819.69;5049641;28;20528;-67
2022/01/25 10:41:00;;;;;;;1999.90;999.90;;;;;;;8.27;68.19;102821.63;5050263;28;20103;-67
2022/01/25 10:43:28;;;;;;;1999.90;999.90;;;;;;;9.41;64.27;102809.88;5049808;28;20057;-67
2022/01/25 10:46:06;;;;;;;1999.90;999.90;;;;;;;9.75;60.06;102813.69;5066111;28;20053;-67
2022/01/25 10:48:34;;;;;;;1999.90;999.90;;;;;;;10.64;60.46;102808.69;5070134;28;20055;-67
2022/01/25 10:51:05;;;;;;;1999.90;999.90;;;;;;;10.62;58.81;102823.63;5076626;28;20040;-67
2022/01/25 10:53:32;;;;;;;1999.90;999.90;;;;;;;10.56;57.96;102815.88;5055882;28;20107;-68
2022/01/25 10:56:00;;;;;;;1999.90;999.90;;;;;;;10.47;59.06;102809.91;5058407;28;20602;-67
2022/01/25 10:58:27;;;;;;;1999.90;999.90;;;;;;;10.11;59.25;102816.63;5069145;28;20113;-67
2022/01/25 11:00:53;;;;;;;1999.90;999.90;;;;;;;10.31;59.59;102814.56;5069611;28;20110;-67
2022/01/25 11:03:27;;;;;;;1999.90;999.90;;;;;;;9.98;59.30;102808.09;5069327;28;20049;-67
2022/01/25 11:05:55;;;;;;;1999.90;999.90;;;;;;;9.42;60.62;102811.63;5068636;28;20041;-67
2022/01/25 11:08:25;;;;;;;1999.90;999.90;;;;;;;9.59;61.76;102800.88;5069622;28;20045;-67
2022/01/25 11:10:56;;;;;;;1999.90;999.90;;;;;;;9.74;61.81;102800.66;5068705;28;20554;-67
2022/01/25 11:13:35;;;;;;;;;;;;;;;9.77;62.38;102805.84;5069180;28;20048;-68
2022/01/25 11:16:04;;;;;;;1999.90;999.90;;;;;;;9.72;61.35;102803.28;5085374;28;19920;-67
2022/01/25 11:18:31;;;;;;;1999.90;999.90;;;;;;;9.31;61.94;102805.66;5088539;28;20040;-67
2022/01/25 11:21:03;;;;;;;1999.90;999.90;;;;;;;8.46;64.30;102805.81;5089202;28;20048;-67
2022/01/25 11:23:32;;;;;;;1999.90;999.90;;;;;;;7.26;66.47;102812.78;5088528;28;20089;-67
2022/01/25 11:26:01;;;;;;;1999.90;999.90;;;;;;;7.77;67.11;102816.81;5087726;28;20044;-67
2022/01/25 11:28:30;;;;;;;1999.90;999.90;;;;;;;7.98;66.80;102809.69;5090864;28;20127;-67
2022/01/25 11:31:00;;;;;;;1999.90;999.90;;;;;;;7.93;67.21;102814.94;5082005;28;20063;-67
2022/01/25 11:33:28;;;;;;;1999.90;999.90;;;;;;;7.68;67.20;102806.44;5069749;28;20500;-67
2022/01/25 11:35:54;;;;;;;1999.90;999.90;;;;;;;7.70;66.79;102795.97;5071062;28;20101;-67
2022/01/25 11:38:33;;;;;;;1999.90;999.90;;;;;;;7.98;66.08;102794.88;5068803;28;20066;-67
2022/01/25 11:41:00;;;;;;;1999.90;999.90;;;;;;;7.27;67.91;102791.03;5070934;28;20044;-68
2022/01/25 11:43:26;;;;;;;1999.90;999.90;;;;;;;6.76;69.59;102789.50;5069860;28;20118;-67
2022/01/25 11:46:02;;;;;;;1999.90;999.90;;;;;;;6.99;69.56;102783.31;5070718;28;20137;-67
2022/01/25 11:48:36;;;;;;;1999.90;999.90;;;;;;;6.66;70.62;102782.59;5069477;28;20045;-67
2022/01/25 11:51:06;;;;;;;1999.90;999.90;;;;;;;6.90;70.45;102773.81;5064175;28;20045;-67
2022/01/25 11:53:40;;;;;;;1999.90;999.90;;;;;;;7.22;69.86;102776.25;5067101;28;20068;-67
2022/01/25 11:56:09;;;;;;;1999.90;999.90;;;;;;;7.08;69.77;102773.72;5079089;27;20048;-67
2022/01/25 11:58:36;;;;;;;1555.32;801.33;;;;;;;6.58;70.47;102773.03;5087298;27;20086;-67
2022/01/25 12:01:04;;;;;;;1999.90;999.90;;;;;;;6.99;70.43;102778.97;5062370;28;20040;-67
2022/01/25 12:03:32;;;;;;;1999.90;999.90;;;;;;;6.84;70.52;102777.31;5089631;28;20048;-68
2022/01/25 12:06:04;;;;;;;1999.90;999.90;;;;;;;6.67;70.38;102780.84;5090783;28;20040;-67
2022/01/25 12:08:50;;;;;;;1999.90;999.90;;;;;;;6.59;71.05;102777.41;5088974;28;20036;-68